FW1219 Weather Reports


Display with metric or nautical units.
time (UTC)temp
F
wind
direction
speed
MPH
gust
MPH
rain 1hr
in
rain 24hr
in
rain mn
in
humidity
%
barometer
mb
20200707015428 85 113 3.0 0.0 0.00 0.00 0.00 74 1016.9
20200707014929 85 113 3.0 0.0 0.00 0.00 0.00 73 1016.9
20200707014429 86 90 2.0 0.0 0.00 0.00 0.00 72 1016.9
20200707013929 86 113 3.0 0.0 0.00 0.00 0.00 71 1016.9
20200707013427 86 113 3.0 0.0 0.00 0.00 0.00 70 1016.6
20200707012924 87 113 3.0 0.0 0.00 0.00 0.00 70 1016.6
20200707012428 87 113 5.0 0.0 0.00 0.00 0.00 70 1016.6
20200707011929 87 113 3.0 0.0 0.00 0.00 0.00 70 1016.9
20200707011429 87 113 3.0 0.0 0.00 0.00 0.00 69 1016.9
20200707010929 87 113 3.0 0.0 0.00 0.00 0.00 68 1016.9
20200707010428 87 90 4.0 0.0 0.00 0.00 0.00 68 1016.6
20200707005926 87 113 4.0 0.0 0.00 0.00 0.00 67 1016.6
20200707005431 88 113 3.0 0.0 0.00 0.00 0.00 67 1016.6
20200707004928 89 113 2.0 0.0 0.00 0.00 0.00 66 1016.6
20200707004429 89 180 1.0 0.0 0.00 0.00 0.00 66 1016.6
20200707003924 90 0 2.0 0.0 0.00 0.00 0.00 65 1016.9
20200707003427 90 90 1.0 0.0 0.00 0.00 0.00 64 1016.9
20200707002931 89 90 4.0 0.0 0.00 0.00 0.00 65 1016.9
20200707002427 89 113 3.0 0.0 0.00 0.00 0.00 65 1016.6
20200707001929 90 135 2.0 0.0 0.00 0.00 0.00 64 1016.6
20200707001427 91 203 1.0 0.0 0.00 0.00 0.00 62 1016.9
20200707000931 89 113 3.0 0.0 0.00 0.00 0.00 64 1016.9
20200707000431 90 225 2.0 0.0 0.00 0.00 0.00 63 1016.9
20200706235930 90 180 0.0 0.0 0.00 0.00 0.00 64 1016.9
20200706235425 90 113 1.0 0.0 0.00 0.00 0.00 63 1016.9
20200706234922 91 203 4.0 0.0 0.00 0.00 0.00 62 1016.9
20200706234429 91 158 2.0 0.0 0.00 0.00 0.00 63 1016.9
20200706233927 93 135 1.0 0.0 0.00 0.00 0.00 60 1016.9
20200706233426 92 270 2.0 0.0 0.00 0.00 0.00 60 1016.9
20200706232931 91 90 3.0 0.0 0.00 0.00 0.00 62 1016.9
20200706232409 91 113 4.0 0.0 0.00 0.00 0.00 63 1016.9
20200706231929 92 113 4.0 0.0 0.00 0.00 0.00 60 1016.9
20200706231428 93 180 1.0 0.0 0.00 0.00 0.00 58 1016.9
20200706230930 93 23 2.0 0.0 0.00 0.00 0.00 58 1016.9
20200706230429 92 248 2.0 0.0 0.00 0.00 0.00 61 1016.9
20200706225928 92 203 3.0 0.0 0.00 0.00 0.00 60 1016.9
20200706225425 91 113 4.0 0.0 0.00 0.00 0.00 61 1016.9
20200706224931 91 90 6.0 0.0 0.00 0.00 0.00 61 1016.9
20200706224429 91 90 6.0 0.0 0.00 0.00 0.00 61 1017.3
20200706223959 92 90 6.0 0.0 0.00 0.00 0.00 60 1017.3
20200706223425 92 113 2.0 0.0 0.00 0.00 0.00 61 1017.3
20200706222933 92 338 2.0 0.0 0.00 0.00 0.00 61 1017.3
20200706222427 92 90 2.0 0.0 0.00 0.00 0.00 61 1017.3
20200706221928 92 135 2.0 0.0 0.00 0.00 0.00 62 1017.3
20200706221428 93 113 2.0 0.0 0.00 0.00 0.00 59 1017.3
20200706220933 91 113 3.0 0.0 0.00 0.00 0.00 61 1017.3
20200706220430 91 203 6.0 0.0 0.00 0.00 0.00 63 1017.3
20200706215928 91 113 6.0 0.0 0.00 0.00 0.00 62 1017.6
20200706215427 91 90 8.0 0.0 0.00 0.00 0.00 62 1017.6
20200706214927 93 113 3.0 0.0 0.00 0.00 0.00 59 1017.3
20200706214425 90 113 3.0 0.0 0.00 0.00 0.00 63 1017.6
20200706213929 91 135 7.0 0.0 0.00 0.00 0.00 61 1017.6
20200706213426 92 158 2.0 0.0 0.00 0.00 0.00 62 1017.6
20200706212927 91 90 4.0 0.0 0.00 0.00 0.00 63 1017.6
20200706212428 91 135 3.0 0.0 0.00 0.00 0.00 62 1017.9
20200706211927 91 113 5.0 0.0 0.00 0.00 0.00 62 1017.9
20200706211428 91 113 3.0 0.0 0.00 0.00 0.00 62 1017.6
20200706210910 91 113 2.0 0.0 0.00 0.00 0.00 63 1017.9
20200706210424 90 90 4.0 0.0 0.00 0.00 0.00 62 1017.9
20200706205926 91 113 2.0 0.0 0.00 0.00 0.00 63 1017.9
20200706205422 92 113 4.0 0.0 0.00 0.00 0.00 62 1017.9
20200706204928 90 113 2.0 0.0 0.00 0.00 0.00 63 1017.9
20200706204417 91 45 3.0 0.0 0.00 0.00 0.00 60 1017.9
20200706204023 90 113 4.0 0.0 0.00 0.00 0.00 62 1017.9
20200706203425 89 113 4.0 0.0 0.00 0.00 0.00 63 1017.9
20200706202912 92 135 6.0 0.0 0.00 0.00 0.00 61 1017.9
20200706202427 93 203 1.0 0.0 0.00 0.00 0.00 59 1017.9
20200706201925 91 113 3.0 0.0 0.00 0.00 0.00 59 1018.3
20200706201424 92 225 1.0 0.0 0.00 0.00 0.00 58 1017.9
20200706200914 93 180 2.0 0.0 0.00 0.00 0.00 59 1017.9
20200706200426 93 270 2.0 0.0 0.00 0.00 0.00 59 1017.9
20200706195931 94 113 2.0 0.0 0.00 0.00 0.00 55 1017.9
20200706195427 93 113 2.0 0.0 0.00 0.00 0.00 55 1017.9
20200706194922 93 180 3.0 0.0 0.00 0.00 0.00 57 1017.9
20200706194409 92 113 5.0 0.0 0.00 0.00 0.00 60 1018.3
20200706193913 92 338 3.0 0.0 0.00 0.00 0.00 57 1018.3
20200706193411 91 113 0.0 0.0 0.00 0.00 0.00 58 1018.3
20200706192913 92 113 5.0 0.0 0.00 0.00 0.00 59 1018.3
20200706192413 91 90 4.0 0.0 0.00 0.00 0.00 61 1018.3
20200706191912 91 113 3.0 0.0 0.00 0.00 0.00 59 1018.3
20200706191412 91 113 5.0 0.0 0.00 0.00 0.00 59 1018.3
20200706190912 92 203 2.0 0.0 0.00 0.00 0.00 61 1018.3
20200706190424 92 113 3.0 0.0 0.00 0.00 0.00 56 1018.3
20200706185910 91 113 3.0 0.0 0.00 0.00 0.00 59 1018.3
20200706185410 91 90 4.0 0.0 0.00 0.00 0.00 61 1018.6
20200706184910 91 113 4.0 0.0 0.00 0.00 0.00 59 1018.6
20200706184426 91 90 3.0 0.0 0.00 0.00 0.00 64 1018.6
20200706183912 91 113 6.0 0.0 0.00 0.00 0.00 60 1018.6
20200706183416 91 180 2.0 0.0 0.00 0.00 0.00 65 1018.6
20200706182911 91 90 2.0 0.0 0.00 0.00 0.00 61 1018.6
20200706182412 91 225 4.0 0.0 0.00 0.00 0.00 67 1019.0
20200706181909 90 113 2.0 0.0 0.00 0.00 0.00 67 1018.6
20200706181411 91 90 4.0 0.0 0.00 0.00 0.00 65 1019.0
20200706180909 90 113 4.0 0.0 0.00 0.00 0.00 67 1019.0
20200706180416 91 180 5.0 0.0 0.00 0.00 0.00 67 1019.0
20200706175916 91 135 2.0 0.0 0.00 0.00 0.00 66 1019.0
20200706175413 90 113 2.0 0.0 0.00 0.00 0.00 69 1019.0
20200706174910 89 90 3.0 0.0 0.00 0.00 0.00 69 1019.0
20200706174411 88 113 4.0 0.0 0.00 0.00 0.00 70 1019.0
20200706173909 88 90 4.0 0.0 0.00 0.00 0.00 68 1019.0
20200706173416 88 113 6.0 0.0 0.00 0.00 0.00 66 1019.3
20200706172911 88 90 8.0 0.0 0.00 0.00 0.00 69 1019.0
20200706172409 88 113 5.0 0.0 0.00 0.00 0.00 70 1019.0
20200706171920 88 113 6.0 0.0 0.00 0.00 0.00 69 1019.3
20200706171413 89 113 4.0 0.0 0.00 0.00 0.00 72 1019.3
20200706170913 88 135 3.0 0.0 0.00 0.00 0.00 71 1019.3
20200706170408 87 90 3.0 0.0 0.00 0.00 0.00 71 1019.3
20200706165920 87 113 3.0 0.0 0.00 0.00 0.00 70 1019.3
20200706165412 88 113 4.0 0.0 0.00 0.00 0.00 69 1019.3
20200706164910 89 180 2.0 0.0 0.00 0.00 0.00 69 1019.0
20200706164411 87 113 2.0 0.0 0.00 0.00 0.00 70 1019.0
20200706163910 88 90 2.0 0.0 0.00 0.00 0.00 67 1019.3
20200706163410 88 113 6.0 0.0 0.00 0.00 0.00 68 1019.3
20200706162919 87 90 4.0 0.0 0.00 0.00 0.00 72 1019.3
20200706162410 87 113 2.0 0.0 0.00 0.00 0.00 71 1019.3
20200706161909 88 113 6.0 0.0 0.00 0.00 0.00 72 1019.3
20200706161411 87 23 1.0 0.0 0.00 0.00 0.00 72 1019.3
20200706160911 87 113 2.0 0.0 0.00 0.00 0.00 73 1019.3
20200706160411 87 315 2.0 0.0 0.00 0.00 0.00 72 1019.3
20200706155910 87 113 4.0 0.0 0.00 0.00 0.00 72 1019.3
20200706155411 87 90 6.0 0.0 0.00 0.00 0.00 72 1019.3
20200706154911 87 135 1.0 0.0 0.00 0.00 0.00 73 1019.3
20200706154412 86 113 4.0 0.0 0.00 0.00 0.00 73 1019.3
20200706153912 87 90 5.0 0.0 0.00 0.00 0.00 71 1019.3
20200706153445 87 90 3.0 0.0 0.00 0.00 0.00 75 1019.3
20200706152910 86 135 2.0 0.0 0.00 0.00 0.00 75 1019.3
20200706152415 86 293 3.0 0.0 0.00 0.00 0.00 75 1019.3
20200706151916 86 90 4.0 0.0 0.00 0.00 0.00 74 1019.3
20200706151413 86 90 3.0 0.0 0.00 0.00 0.00 76 1019.3
20200706150916 88 180 2.0 0.0 0.00 0.00 0.00 74 1019.3
20200706150412 86 270 0.0 0.0 0.00 0.00 0.00 75 1019.3
20200706145914 86 113 5.0 0.0 0.00 0.00 0.00 76 1019.3
20200706145411 86 113 4.0 0.0 0.00 0.00 0.00 78 1019.3
20200706144911 86 90 2.0 0.0 0.00 0.00 0.00 75 1019.3
20200706144413 86 90 4.0 0.0 0.00 0.00 0.00 75 1019.3
20200706143910 85 113 3.0 0.0 0.00 0.00 0.00 77 1019.3
20200706143410 86 113 4.0 0.0 0.00 0.00 0.00 77 1019.3
20200706142910 85 135 2.0 0.0 0.00 0.00 0.00 77 1019.6
20200706142413 85 113 2.0 0.0 0.00 0.00 0.00 77 1019.6
20200706141910 85 113 2.0 0.0 0.00 0.00 0.00 77 1019.6
20200706141410 86 90 5.0 0.0 0.00 0.00 0.00 75 1019.3
20200706140909 86 113 1.0 0.0 0.00 0.00 0.00 76 1019.3
20200706140409 85 90 2.0 0.0 0.00 0.00 0.00 77 1019.3
20200706135908 85 113 2.0 0.0 0.00 0.00 0.00 79 1019.0
20200706135412 84 90 2.0 0.0 0.00 0.00 0.00 77 1019.0
20200706134908 85 113 2.0 0.0 0.00 0.00 0.00 78 1019.0
20200706134410 84 113 3.0 0.0 0.00 0.00 0.00 78 1019.0
20200706133908 84 113 3.0 0.0 0.00 0.00 0.00 78 1019.0
20200706133412 83 113 2.0 0.0 0.00 0.00 0.00 79 1019.0
20200706132910 83 113 3.0 0.0 0.00 0.00 0.00 80 1018.6
20200706132418 83 158 2.0 0.0 0.00 0.00 0.00 82 1018.6
20200706131912 81 113 1.0 0.0 0.00 0.00 0.00 84 1018.6
20200706131411 81 113 4.0 0.0 0.00 0.00 0.00 84 1018.6
20200706130909 80 90 4.0 0.0 0.00 0.00 0.00 85 1018.6
20200706130410 80 45 4.0 0.0 0.00 0.00 0.00 86 1018.6
20200706125909 80 90 4.0 0.0 0.00 0.00 0.00 87 1018.6
20200706125410 80 45 2.0 0.0 0.00 0.00 0.00 85 1018.6
20200706124909 81 113 3.0 0.0 0.00 0.00 0.00 83 1018.3
20200706124411 80 113 2.0 0.0 0.00 0.00 0.00 84 1018.3
20200706123908 80 113 1.0 0.0 0.00 0.00 0.00 85 1018.3
20200706123412 79 113 0.0 0.0 0.00 0.00 0.00 88 1018.3
20200706122910 78 113 1.0 0.0 0.00 0.00 0.00 89 1017.9
20200706122410 78 113 2.0 0.0 0.00 0.00 0.00 88 1017.9
20200706121911 77 113 2.0 0.0 0.00 0.00 0.00 90 1017.9
20200706121412 76 113 2.0 0.0 0.00 0.00 0.00 91 1017.9
20200706120918 76 113 0.0 0.0 0.00 0.00 0.00 92 1017.9
20200706120415 75 113 0.0 0.0 0.00 0.00 0.00 93 1017.9
20200706115912 74 158 0.0 0.0 0.00 0.00 0.00 95 1017.9
20200706115408 74 113 0.0 0.0 0.00 0.00 0.00 96 1017.9
20200706114910 73 135 0.0 0.0 0.00 0.00 0.00 97 1017.9
20200706114408 73 90 2.0 0.0 0.00 0.00 0.00 97 1017.9
20200706113909 73 90 2.0 0.0 0.00 0.00 0.00 97 1017.9
20200706113411 73 113 3.0 0.0 0.00 0.00 0.00 97 1017.9
20200706112908 73 113 0.0 0.0 0.00 0.00 0.00 98 1017.9
20200706112413 73 113 0.0 0.0 0.00 0.00 0.00 98 1017.6
20200706111908 73 68 0.0 0.0 0.00 0.00 0.00 98 1017.6
20200706111411 72 113 2.0 0.0 0.00 0.00 0.00 98 1017.6
20200706110910 72 113 2.0 0.0 0.00 0.00 0.00 98 1017.6
20200706110414 72 90 2.0 0.0 0.00 0.00 0.00 98 1017.6
20200706105910 72 113 2.0 0.0 0.00 0.00 0.00 98 1017.6
20200706105412 72 113 2.0 0.0 0.00 0.00 0.00 98 1017.6
20200706104910 72 113 3.0 0.0 0.00 0.00 0.00 98 1017.3
20200706104412 72 113 3.0 0.0 0.00 0.00 0.00 98 1017.6
20200706103913 72 113 3.0 0.0 0.00 0.00 0.00 98 1017.6
20200706103413 72 90 3.0 0.0 0.00 0.00 0.00 98 1017.6
20200706102911 72 113 1.0 0.0 0.00 0.00 0.00 97 1017.3
20200706102409 72 113 3.0 0.0 0.00 0.00 0.00 97 1017.3
20200706101910 72 45 4.0 0.0 0.00 0.00 0.00 97 1017.3
20200706101409 73 23 4.0 0.0 0.00 0.00 0.00 97 1017.3
20200706100913 73 90 4.0 0.0 0.00 0.00 0.00 97 1017.3
20200706100412 73 68 5.0 0.0 0.00 0.00 0.00 96 1017.3
20200706095909 73 113 5.0 0.0 0.00 0.00 0.00 96 1017.3
20200706095411 73 113 5.0 0.0 0.00 0.00 0.00 96 1017.3
20200706094909 73 90 4.0 0.0 0.00 0.00 0.00 96 1017.3
20200706094411 73 90 3.0 0.0 0.00 0.00 0.00 95 1017.3
20200706093912 73 113 3.0 0.0 0.00 0.00 0.00 95 1017.3
20200706093410 73 45 3.0 0.0 0.00 0.00 0.00 94 1017.3
20200706092908 73 113 2.0 0.0 0.00 0.00 0.00 94 1017.3
20200706092411 74 23 3.0 0.0 0.00 0.00 0.00 94 1017.3
20200706091911 73 68 2.0 0.0 0.00 0.00 0.00 94 1017.3
20200706091413 74 68 2.0 0.0 0.00 0.00 0.00 94 1017.3
20200706090913 74 90 2.0 0.0 0.00 0.00 0.00 94 1017.3
20200706090412 74 68 2.0 0.0 0.00 0.00 0.00 94 1017.3
20200706085908 74 90 3.0 0.0 0.00 0.00 0.00 94 1017.3
20200706085409 74 90 2.0 0.0 0.00 0.00 0.00 94 1017.3
20200706084911 74 68 2.0 0.0 0.00 0.00 0.00 94 1017.3
20200706084409 74 45 2.0 0.0 0.00 0.00 0.00 94 1017.3
20200706083909 74 68 3.0 0.0 0.00 0.00 0.00 94 1017.3
20200706083411 74 180 2.0 0.0 0.00 0.00 0.00 94 1017.3
20200706082909 74 45 1.0 0.0 0.00 0.00 0.00 94 1017.3
20200706082408 74 68 2.0 0.0 0.00 0.00 0.00 95 1017.3
20200706081912 73 90 0.0 0.0 0.00 0.00 0.00 96 1017.3
20200706081410 73 113 0.0 0.0 0.00 0.00 0.00 96 1017.3
20200706080911 73 113 0.0 0.0 0.00 0.00 0.00 96 1017.3
20200706080411 73 90 0.0 0.0 0.00 0.00 0.00 95 1017.3
20200706075910 73 45 0.0 0.0 0.00 0.00 0.00 96 1017.3
20200706075408 73 270 0.0 0.0 0.00 0.00 0.00 96 1017.6
20200706074910 73 203 0.0 0.0 0.00 0.00 0.00 96 1017.6
20200706074411 73 158 0.0 0.0 0.00 0.00 0.00 94 1017.6
20200706073913 73 180 0.0 0.0 0.00 0.00 0.00 94 1017.6
20200706073411 74 180 0.0 0.0 0.00 0.00 0.00 94 1017.6
20200706072910 74 203 0.0 0.0 0.00 0.00 0.00 94 1017.6
20200706072411 74 248 0.0 0.0 0.00 0.00 0.00 93 1017.6
20200706071910 75 270 0.0 0.0 0.00 0.00 0.00 93 1017.6
20200706071411 75 45 0.0 0.0 0.00 0.00 0.00 93 1017.6
20200706070913 75 68 0.0 0.0 0.00 0.00 0.00 92 1017.6
20200706070414 75 113 0.0 0.0 0.00 0.00 0.00 92 1017.9
20200706065912 75 158 0.0 0.0 0.00 0.00 0.00 92 1017.9
20200706065412 75 135 0.0 0.0 0.00 0.00 0.00 91 1017.9
20200706064910 75 45 0.0 0.0 0.00 0.00 0.00 91 1017.9
20200706064411 75 90 0.0 0.0 0.00 0.00 0.00 91 1017.9
20200706063913 75 270 0.0 0.0 0.00 0.00 0.00 90 1017.9
20200706063412 75 113 0.0 0.0 0.00 0.00 0.00 90 1017.9
20200706062912 75 113 0.0 0.0 0.00 0.00 0.00 89 1017.9
20200706062416 76 113 0.0 0.0 0.00 0.00 0.00 89 1017.9
20200706061910 76 113 0.0 0.0 0.00 0.00 0.00 89 1017.9
20200706061410 76 45 0.0 0.0 0.00 0.00 0.00 89 1017.9
20200706060909 76 23 0.0 0.0 0.00 0.00 0.00 88 1017.9
20200706060412 76 45 0.0 0.0 0.00 0.00 0.00 88 1017.9
20200706055908 77 270 0.0 0.0 0.00 0.00 0.00 88 1018.3
20200706055410 77 315 1.0 0.0 0.00 0.00 0.00 87 1017.9
20200706054912 78 68 1.0 0.0 0.00 0.00 0.00 84 1017.9
20200706054409 78 113 3.0 0.0 0.00 0.00 0.00 83 1017.9
20200706053908 78 90 2.0 0.0 0.00 0.00 0.00 83 1017.9
20200706053410 78 113 2.0 0.0 0.00 0.00 0.00 83 1017.9
20200706052911 78 113 2.0 0.0 0.00 0.00 0.00 82 1017.6
20200706052412 78 113 4.0 0.0 0.00 0.00 0.00 82 1017.6
20200706051912 79 113 3.0 0.0 0.00 0.00 0.00 82 1017.6
20200706051410 79 113 4.0 0.0 0.00 0.00 0.00 82 1017.6
20200706050909 79 113 4.0 0.0 0.00 0.00 0.00 82 1017.6
20200706050412 79 113 2.0 0.0 0.00 0.00 0.00 82 1017.6
20200706045911 79 90 2.0 0.0 0.00 0.00 0.00 82 1017.6
20200706045411 79 90 4.0 0.0 0.00 0.00 0.00 81 1017.6
20200706044908 79 113 4.0 0.0 0.00 0.00 0.00 81 1017.6
20200706044411 79 113 4.0 0.0 0.00 0.00 0.00 81 1017.3
20200706043912 79 113 4.0 0.0 0.00 0.00 0.00 81 1017.3
20200706043411 80 90 4.0 0.0 0.00 0.00 0.00 81 1017.3
20200706042913 80 113 4.0 0.0 0.00 0.00 0.00 81 1017.3
20200706042412 80 113 4.0 0.0 0.00 0.00 0.00 81 1017.3
20200706041911 80 90 5.0 0.0 0.00 0.00 0.00 80 1017.3
20200706041411 80 113 5.0 0.0 0.00 0.00 0.00 80 1017.3
20200706040910 80 90 6.0 0.0 0.00 0.00 0.00 80 1017.3
20200706040411 80 113 5.0 0.0 0.00 0.00 0.00 80 1017.3
20200706035910 80 90 8.0 0.0 0.00 0.00 0.00 80 1017.3
20200706035446 80 113 4.0 0.0 0.00 0.00 0.00 80 1017.3
20200706034914 80 113 4.0 0.0 0.00 0.00 0.00 80 1017.3
20200706034429 80 113 7.0 0.0 0.00 0.00 0.00 80 1016.9
20200706033923 80 90 3.0 0.0 0.00 0.00 0.00 80 1016.9
20200706033422 80 113 4.0 0.0 0.00 0.00 0.00 80 1017.3
20200706032913 80 90 3.0 0.0 0.00 0.00 0.00 80 1017.3
20200706032411 80 90 4.0 0.0 0.00 0.00 0.00 80 1017.3
20200706031917 80 113 3.0 0.0 0.00 0.00 0.00 80 1016.9
20200706031412 80 90 3.0 0.0 0.00 0.00 0.00 80 1016.9
20200706030913 80 113 3.0 0.0 0.00 0.00 0.00 80 1016.9
20200706030412 80 113 4.0 0.0 0.00 0.00 0.00 80 1016.9
20200706025912 80 90 2.0 0.0 0.00 0.00 0.00 80 1016.9
20200706025410 80 90 3.0 0.0 0.00 0.00 0.00 80 1016.9
20200706024915 81 113 2.0 0.0 0.00 0.00 0.00 79 1016.6
20200706024417 81 113 3.0 0.0 0.00 0.00 0.00 78 1016.9
20200706023910 81 113 3.0 0.0 0.00 0.00 0.00 78 1016.6
20200706023413 81 113 4.0 0.0 0.00 0.00 0.00 77 1016.6
20200706022928 82 90 4.0 0.0 0.00 0.00 0.00 77 1016.6
20200706022427 82 90 2.0 0.0 0.00 0.00 0.00 77 1016.6
20200706021920 82 68 2.0 0.0 0.00 0.00 0.00 77 1016.6
20200706021409 82 90 1.0 0.0 0.00 0.00 0.00 76 1016.6
20200706020918 83 68 2.0 0.0 0.00 0.00 0.00 76 1016.6
20200706020415 83 90 1.0 0.0 0.00 0.00 0.00 75 1016.6
20200706015910 83 113 2.0 0.0 0.00 0.00 0.00 74 1016.3